sensor_id;sensor_type;location;lat;lon;timestamp;P1;durP1;ratioP1;P2;durP2;ratioP2
15931;SDS011;8065;49.520;11.284;2023-03-14T00:01:38;0.60;;;0.50;;
15931;SDS011;8065;49.520;11.284;2023-03-14T00:04:06;0.43;;;0.43;;
15931;SDS011;8065;49.520;11.284;2023-03-14T00:06:32;1.40;;;0.70;;
15931;SDS011;8065;49.520;11.284;2023-03-14T00:09:01;1.17;;;0.50;;
15931;SDS011;8065;49.520;11.284;2023-03-14T00:11:27;0.57;;;0.57;;
15931;SDS011;8065;49.520;11.284;2023-03-14T00:13:54;0.60;;;0.60;;
15931;SDS011;8065;49.520;11.284;2023-03-14T00:16:21;1.53;;;0.70;;
15931;SDS011;8065;49.520;11.284;2023-03-14T00:18:48;1.23;;;0.57;;
15931;SDS011;8065;49.520;11.284;2023-03-14T00:21:16;0.53;;;0.40;;
15931;SDS011;8065;49.520;11.284;2023-03-14T00:23:43;0.60;;;0.60;;
15931;SDS011;8065;49.520;11.284;2023-03-14T00:26:10;0.40;;;0.40;;
15931;SDS011;8065;49.520;11.284;2023-03-14T00:28:38;0.43;;;0.43;;
15931;SDS011;8065;49.520;11.284;2023-03-14T00:31:06;0.30;;;0.30;;
15931;SDS011;8065;49.520;11.284;2023-03-14T00:33:34;0.90;;;0.40;;
15931;SDS011;8065;49.520;11.284;2023-03-14T00:36:02;0.83;;;0.43;;
15931;SDS011;8065;49.520;11.284;2023-03-14T00:38:32;0.40;;;0.40;;
15931;SDS011;8065;49.520;11.284;2023-03-14T00:40:59;1.33;;;0.60;;
15931;SDS011;8065;49.520;11.284;2023-03-14T00:43:28;2.00;;;0.50;;
15931;SDS011;8065;49.520;11.284;2023-03-14T00:45:55;0.67;;;0.57;;
15931;SDS011;8065;49.520;11.284;2023-03-14T00:48:22;0.40;;;0.40;;
15931;SDS011;8065;49.520;11.284;2023-03-14T00:50:48;0.47;;;0.40;;
15931;SDS011;8065;49.520;11.284;2023-03-14T00:53:15;0.83;;;0.47;;
15931;SDS011;8065;49.520;11.284;2023-03-14T00:55:43;0.30;;;0.30;;
15931;SDS011;8065;49.520;11.284;2023-03-14T00:58:11;0.83;;;0.50;;
15931;SDS011;8065;49.520;11.284;2023-03-14T01:00:39;0.40;;;0.40;;
15931;SDS011;8065;49.520;11.284;2023-03-14T01:03:07;0.77;;;0.50;;
15931;SDS011;8065;49.520;11.284;2023-03-14T01:05:34;2.40;;;0.30;;
15931;SDS011;8065;49.520;11.284;2023-03-14T01:08:01;1.27;;;0.40;;
15931;SDS011;8065;49.520;11.284;2023-03-14T01:10:28;0.13;;;0.13;;
15931;SDS011;8065;49.520;11.284;2023-03-14T01:12:56;0.40;;;0.40;;
15931;SDS011;8065;49.520;11.284;2023-03-14T01:15:23;0.30;;;0.30;;
15931;SDS011;8065;49.520;11.284;2023-03-14T01:17:49;0.50;;;0.30;;
15931;SDS011;8065;49.520;11.284;2023-03-14T01:20:16;1.60;;;0.30;;
15931;SDS011;8065;49.520;11.284;2023-03-14T01:22:43;0.40;;;0.40;;
15931;SDS011;8065;49.520;11.284;2023-03-14T01:25:11;1.30;;;0.20;;
15931;SDS011;8065;49.520;11.284;2023-03-14T01:27:39;1.63;;;0.10;;
15931;SDS011;8065;49.520;11.284;2023-03-14T01:30:07;0.27;;;0.27;;
15931;SDS011;8065;49.520;11.284;2023-03-14T01:32:35;0.13;;;0.10;;
15931;SDS011;8065;49.520;11.284;2023-03-14T01:35:03;0.20;;;0.10;;
15931;SDS011;8065;49.520;11.284;2023-03-14T01:37:30;1.50;;;0.40;;
15931;SDS011;8065;49.520;11.284;2023-03-14T01:39:56;0.20;;;0.20;;
15931;SDS011;8065;49.520;11.284;2023-03-14T01:42:23;0.27;;;0.20;;
15931;SDS011;8065;49.520;11.284;2023-03-14T01:44:50;0.30;;;0.30;;
15931;SDS011;8065;49.520;11.284;2023-03-14T01:47:20;0.37;;;0.30;;
15931;SDS011;8065;49.520;11.284;2023-03-14T01:49:47;0.30;;;0.30;;
15931;SDS011;8065;49.520;11.284;2023-03-14T01:52:16;0.20;;;0.20;;
15931;SDS011;8065;49.520;11.284;2023-03-14T01:54:47;0.30;;;0.23;;
15931;SDS011;8065;49.520;11.284;2023-03-14T01:57:19;0.53;;;0.20;;
15931;SDS011;8065;49.520;11.284;2023-03-14T01:59:49;0.20;;;0.20;;
15931;SDS011;8065;49.520;11.284;2023-03-14T02:02:21;0.20;;;0.20;;
15931;SDS011;8065;49.520;11.284;2023-03-14T02:04:50;0.20;;;0.20;;
15931;SDS011;8065;49.520;11.284;2023-03-14T02:07:18;0.70;;;0.20;;
15931;SDS011;8065;49.520;11.284;2023-03-14T02:09:48;0.20;;;0.20;;
15931;SDS011;8065;49.520;11.284;2023-03-14T02:12:16;0.50;;;0.20;;
15931;SDS011;8065;49.520;11.284;2023-03-14T02:14:44;0.20;;;0.20;;
15931;SDS011;8065;49.520;11.284;2023-03-14T02:17:13;0.27;;;0.13;;
15931;SDS011;8065;49.520;11.284;2023-03-14T02:19:46;0.30;;;0.20;;
15931;SDS011;8065;49.520;11.284;2023-03-14T02:22:24;0.20;;;0.20;;
15931;SDS011;8065;49.520;11.284;2023-03-14T02:24:54;0.57;;;0.30;;
15931;SDS011;8065;49.520;11.284;2023-03-14T02:27:28;0.50;;;0.30;;
15931;SDS011;8065;49.520;11.284;2023-03-14T02:29:55;0.97;;;0.27;;
15931;SDS011;8065;49.520;11.284;2023-03-14T02:32:25;0.40;;;0.40;;
15931;SDS011;8065;49.520;11.284;2023-03-14T02:34:54;0.50;;;0.30;;
15931;SDS011;8065;49.520;11.284;2023-03-14T02:37:24;1.13;;;0.30;;
15931;SDS011;8065;49.520;11.284;2023-03-14T02:39:53;0.40;;;0.40;;
15931;SDS011;8065;49.520;11.284;2023-03-14T02:42:20;0.40;;;0.40;;
15931;SDS011;8065;49.520;11.284;2023-03-14T02:44:50;0.20;;;0.20;;
15931;SDS011;8065;49.520;11.284;2023-03-14T02:47:20;0.27;;;0.27;;
15931;SDS011;8065;49.520;11.284;2023-03-14T02:49:53;0.53;;;0.20;;
15931;SDS011;8065;49.520;11.284;2023-03-14T02:52:27;0.77;;;0.40;;
15931;SDS011;8065;49.520;11.284;2023-03-14T02:54:53;0.30;;;0.30;;
15931;SDS011;8065;49.520;11.284;2023-03-14T02:57:20;0.87;;;0.30;;
15931;SDS011;8065;49.520;11.284;2023-03-14T02:59:47;0.30;;;0.30;;
15931;SDS011;8065;49.520;11.284;2023-03-14T03:02:15;1.13;;;0.30;;
15931;SDS011;8065;49.520;11.284;2023-03-14T03:04:41;0.33;;;0.33;;
15931;SDS011;8065;49.520;11.284;2023-03-14T03:07:08;0.50;;;0.37;;
15931;SDS011;8065;49.520;11.284;2023-03-14T03:09:34;0.47;;;0.23;;
15931;SDS011;8065;49.520;11.284;2023-03-14T03:12:01;0.40;;;0.40;;
15931;SDS011;8065;49.520;11.284;2023-03-14T03:14:27;0.20;;;0.20;;
15931;SDS011;8065;49.520;11.284;2023-03-14T03:16:54;1.03;;;0.30;;
15931;SDS011;8065;49.520;11.284;2023-03-14T03:19:22;0.43;;;0.20;;
15931;SDS011;8065;49.520;11.284;2023-03-14T03:21:48;0.20;;;0.20;;
15931;SDS011;8065;49.520;11.284;2023-03-14T03:24:15;0.23;;;0.23;;
15931;SDS011;8065;49.520;11.284;2023-03-14T03:26:41;0.10;;;0.10;;
15931;SDS011;8065;49.520;11.284;2023-03-14T03:29:08;0.40;;;0.40;;
15931;SDS011;8065;49.520;11.284;2023-03-14T03:31:36;0.40;;;0.40;;
15931;SDS011;8065;49.520;11.284;2023-03-14T03:34:03;0.50;;;0.50;;
15931;SDS011;8065;49.520;11.284;2023-03-14T03:36:31;0.30;;;0.30;;
15931;SDS011;8065;49.520;11.284;2023-03-14T03:38:58;0.30;;;0.30;;
15931;SDS011;8065;49.520;11.284;2023-03-14T03:41:24;0.23;;;0.20;;
15931;SDS011;8065;49.520;11.284;2023-03-14T03:43:51;0.20;;;0.20;;
15931;SDS011;8065;49.520;11.284;2023-03-14T03:46:19;0.30;;;0.30;;
15931;SDS011;8065;49.520;11.284;2023-03-14T03:48:45;0.47;;;0.47;;
15931;SDS011;8065;49.520;11.284;2023-03-14T03:51:12;0.30;;;0.20;;
15931;SDS011;8065;49.520;11.284;2023-03-14T03:53:41;0.40;;;0.40;;
15931;SDS011;8065;49.520;11.284;2023-03-14T03:56:08;1.47;;;0.40;;
15931;SDS011;8065;49.520;11.284;2023-03-14T03:58:35;0.30;;;0.30;;
15931;SDS011;8065;49.520;11.284;2023-03-14T04:01:04;0.50;;;0.30;;
15931;SDS011;8065;49.520;11.284;2023-03-14T04:03:31;0.33;;;0.30;;
15931;SDS011;8065;49.520;11.284;2023-03-14T04:05:58;0.33;;;0.30;;
15931;SDS011;8065;49.520;11.284;2023-03-14T04:08:25;0.20;;;0.20;;
15931;SDS011;8065;49.520;11.284;2023-03-14T04:10:55;0.33;;;0.33;;
15931;SDS011;8065;49.520;11.284;2023-03-14T04:13:22;0.27;;;0.27;;
15931;SDS011;8065;49.520;11.284;2023-03-14T04:15:49;0.20;;;0.20;;
15931;SDS011;8065;49.520;11.284;2023-03-14T04:18:16;0.27;;;0.27;;
15931;SDS011;8065;49.520;11.284;2023-03-14T04:20:42;0.50;;;0.30;;
15931;SDS011;8065;49.520;11.284;2023-03-14T04:23:09;0.30;;;0.30;;
15931;SDS011;8065;49.520;11.284;2023-03-14T04:25:36;0.30;;;0.20;;
15931;SDS011;8065;49.520;11.284;2023-03-14T04:28:04;0.37;;;0.23;;
15931;SDS011;8065;49.520;11.284;2023-03-14T04:30:30;0.30;;;0.27;;
15931;SDS011;8065;49.520;11.284;2023-03-14T04:32:57;0.30;;;0.30;;
15931;SDS011;8065;49.520;11.284;2023-03-14T04:35:24;0.83;;;0.43;;
15931;SDS011;8065;49.520;11.284;2023-03-14T04:37:50;0.30;;;0.27;;
15931;SDS011;8065;49.520;11.284;2023-03-14T04:40:17;0.67;;;0.30;;
15931;SDS011;8065;49.520;11.284;2023-03-14T04:42:44;0.50;;;0.37;;
15931;SDS011;8065;49.520;11.284;2023-03-14T04:45:11;0.40;;;0.40;;
15931;SDS011;8065;49.520;11.284;2023-03-14T04:47:38;1.10;;;0.20;;
15931;SDS011;8065;49.520;11.284;2023-03-14T04:50:05;0.23;;;0.23;;
15931;SDS011;8065;49.520;11.284;2023-03-14T04:52:32;0.30;;;0.30;;
15931;SDS011;8065;49.520;11.284;2023-03-14T04:54:58;0.67;;;0.47;;
15931;SDS011;8065;49.520;11.284;2023-03-14T04:57:25;0.77;;;0.23;;
15931;SDS011;8065;49.520;11.284;2023-03-14T04:59:51;0.27;;;0.27;;
15931;SDS011;8065;49.520;11.284;2023-03-14T05:02:19;0.30;;;0.30;;
15931;SDS011;8065;49.520;11.284;2023-03-14T05:04:46;0.50;;;0.30;;
15931;SDS011;8065;49.520;11.284;2023-03-14T05:07:12;1.20;;;0.20;;
15931;SDS011;8065;49.520;11.284;2023-03-14T05:09:39;0.20;;;0.20;;
15931;SDS011;8065;49.520;11.284;2023-03-14T05:12:05;0.20;;;0.20;;
15931;SDS011;8065;49.520;11.284;2023-03-14T05:14:33;0.63;;;0.30;;
15931;SDS011;8065;49.520;11.284;2023-03-14T05:16:59;0.93;;;0.50;;
15931;SDS011;8065;49.520;11.284;2023-03-14T05:19:27;0.23;;;0.23;;
15931;SDS011;8065;49.520;11.284;2023-03-14T05:21:54;0.40;;;0.30;;
15931;SDS011;8065;49.520;11.284;2023-03-14T05:24:21;0.30;;;0.30;;
15931;SDS011;8065;49.520;11.284;2023-03-14T05:26:47;1.07;;;0.30;;
15931;SDS011;8065;49.520;11.284;2023-03-14T05:29:14;0.30;;;0.30;;
15931;SDS011;8065;49.520;11.284;2023-03-14T05:31:40;0.20;;;0.20;;
15931;SDS011;8065;49.520;11.284;2023-03-14T05:34:07;0.90;;;0.40;;
15931;SDS011;8065;49.520;11.284;2023-03-14T05:36:35;0.27;;;0.27;;
15931;SDS011;8065;49.520;11.284;2023-03-14T05:39:01;0.63;;;0.40;;
15931;SDS011;8065;49.520;11.284;2023-03-14T05:41:28;0.30;;;0.30;;
15931;SDS011;8065;49.520;11.284;2023-03-14T05:43:55;0.47;;;0.40;;
15931;SDS011;8065;49.520;11.284;2023-03-14T05:46:21;0.30;;;0.30;;
15931;SDS011;8065;49.520;11.284;2023-03-14T05:48:48;1.43;;;0.30;;
15931;SDS011;8065;49.520;11.284;2023-03-14T05:51:14;0.30;;;0.30;;
15931;SDS011;8065;49.520;11.284;2023-03-14T05:53:42;0.30;;;0.30;;
15931;SDS011;8065;49.520;11.284;2023-03-14T05:56:09;0.30;;;0.30;;
15931;SDS011;8065;49.520;11.284;2023-03-14T05:58:35;0.30;;;0.30;;
15931;SDS011;8065;49.520;11.284;2023-03-14T06:01:03;0.30;;;0.30;;
15931;SDS011;8065;49.520;11.284;2023-03-14T06:03:31;0.83;;;0.50;;
15931;SDS011;8065;49.520;11.284;2023-03-14T06:05:58;0.30;;;0.30;;
15931;SDS011;8065;49.520;11.284;2023-03-14T06:08:25;0.70;;;0.70;;
15931;SDS011;8065;49.520;11.284;2023-03-14T06:10:53;0.97;;;0.80;;
15931;SDS011;8065;49.520;11.284;2023-03-14T06:13:20;0.47;;;0.40;;
15931;SDS011;8065;49.520;11.284;2023-03-14T06:15:47;0.40;;;0.40;;
15931;SDS011;8065;49.520;11.284;2023-03-14T06:18:13;0.47;;;0.40;;
15931;SDS011;8065;49.520;11.284;2023-03-14T06:20:40;0.90;;;0.40;;
15931;SDS011;8065;49.520;11.284;2023-03-14T06:23:07;0.80;;;0.77;;
15931;SDS011;8065;49.520;11.284;2023-03-14T06:25:34;1.30;;;0.70;;
15931;SDS011;8065;49.520;11.284;2023-03-14T06:28:03;0.43;;;0.43;;
15931;SDS011;8065;49.520;11.284;2023-03-14T06:30:30;1.30;;;0.40;;
15931;SDS011;8065;49.520;11.284;2023-03-14T06:32:56;8.07;;;5.90;;
15931;SDS011;8065;49.520;11.284;2023-03-14T06:35:23;6.37;;;5.33;;
15931;SDS011;8065;49.520;11.284;2023-03-14T06:37:49;3.43;;;3.10;;
15931;SDS011;8065;49.520;11.284;2023-03-14T06:40:16;1.30;;;1.13;;
15931;SDS011;8065;49.520;11.284;2023-03-14T06:42:43;1.00;;;0.90;;
15931;SDS011;8065;49.520;11.284;2023-03-14T06:45:11;1.00;;;1.00;;
15931;SDS011;8065;49.520;11.284;2023-03-14T06:47:38;1.10;;;0.83;;
15931;SDS011;8065;49.520;11.284;2023-03-14T06:50:05;2.17;;;1.07;;
15931;SDS011;8065;49.520;11.284;2023-03-14T06:52:33;0.90;;;0.90;;
15931;SDS011;8065;49.520;11.284;2023-03-14T06:55:00;1.70;;;1.00;;
15931;SDS011;8065;49.520;11.284;2023-03-14T06:57:26;1.60;;;1.50;;
15931;SDS011;8065;49.520;11.284;2023-03-14T06:59:53;1.00;;;1.00;;
15931;SDS011;8065;49.520;11.284;2023-03-14T07:02:21;2.10;;;1.13;;
15931;SDS011;8065;49.520;11.284;2023-03-14T07:04:48;3.03;;;1.43;;
15931;SDS011;8065;49.520;11.284;2023-03-14T07:07:15;1.90;;;1.00;;
15931;SDS011;8065;49.520;11.284;2023-03-14T07:09:41;1.30;;;1.20;;
15931;SDS011;8065;49.520;11.284;2023-03-14T07:12:08;1.33;;;0.90;;
15931;SDS011;8065;49.520;11.284;2023-03-14T07:14:34;1.60;;;0.80;;
15931;SDS011;8065;49.520;11.284;2023-03-14T07:17:01;0.60;;;0.60;;
15931;SDS011;8065;49.520;11.284;2023-03-14T07:19:29;0.50;;;0.50;;
15931;SDS011;8065;49.520;11.284;2023-03-14T07:21:55;1.03;;;0.60;;
15931;SDS011;8065;49.520;11.284;2023-03-14T07:24:22;1.90;;;0.60;;
15931;SDS011;8065;49.520;11.284;2023-03-14T07:26:48;0.63;;;0.63;;
15931;SDS011;8065;49.520;11.284;2023-03-14T07:29:15;0.93;;;0.70;;
15931;SDS011;8065;49.520;11.284;2023-03-14T07:31:41;1.37;;;0.70;;
15931;SDS011;8065;49.520;11.284;2023-03-14T07:34:08;0.80;;;0.80;;
15931;SDS011;8065;49.520;11.284;2023-03-14T07:36:36;1.23;;;0.60;;
15931;SDS011;8065;49.520;11.284;2023-03-14T07:39:03;4.40;;;0.70;;
15931;SDS011;8065;49.520;11.284;2023-03-14T07:41:29;1.03;;;0.90;;
15931;SDS011;8065;49.520;11.284;2023-03-14T07:43:56;0.80;;;0.80;;
15931;SDS011;8065;49.520;11.284;2023-03-14T07:46:23;1.63;;;0.80;;
15931;SDS011;8065;49.520;11.284;2023-03-14T07:48:49;0.60;;;0.60;;
15931;SDS011;8065;49.520;11.284;2023-03-14T07:51:16;2.07;;;0.83;;
15931;SDS011;8065;49.520;11.284;2023-03-14T07:53:44;0.60;;;0.60;;
15931;SDS011;8065;49.520;11.284;2023-03-14T07:56:11;2.03;;;0.80;;
15931;SDS011;8065;49.520;11.284;2023-03-14T07:58:37;0.90;;;0.70;;
15931;SDS011;8065;49.520;11.284;2023-03-14T08:01:04;2.20;;;0.80;;
15931;SDS011;8065;49.520;11.284;2023-03-14T08:03:31;2.53;;;0.90;;
15931;SDS011;8065;49.520;11.284;2023-03-14T08:05:58;2.03;;;0.50;;
15931;SDS011;8065;49.520;11.284;2023-03-14T08:08:24;2.60;;;0.70;;
15931;SDS011;8065;49.520;11.284;2023-03-14T08:10:52;0.53;;;0.50;;
15931;SDS011;8065;49.520;11.284;2023-03-14T08:13:19;1.33;;;0.60;;
15931;SDS011;8065;49.520;11.284;2023-03-14T08:15:47;1.83;;;0.80;;
15931;SDS011;8065;49.520;11.284;2023-03-14T08:18:14;0.90;;;0.70;;
15931;SDS011;8065;49.520;11.284;2023-03-14T08:20:41;1.23;;;0.60;;
15931;SDS011;8065;49.520;11.284;2023-03-14T08:23:07;1.63;;;0.60;;
15931;SDS011;8065;49.520;11.284;2023-03-14T08:25:34;0.60;;;0.50;;
15931;SDS011;8065;49.520;11.284;2023-03-14T08:28:02;0.83;;;0.70;;
15931;SDS011;8065;49.520;11.284;2023-03-14T08:30:29;0.50;;;0.50;;
15931;SDS011;8065;49.520;11.284;2023-03-14T08:32:56;2.43;;;2.23;;
15931;SDS011;8065;49.520;11.284;2023-03-14T08:35:22;1.27;;;1.10;;
15931;SDS011;8065;49.520;11.284;2023-03-14T08:37:50;1.03;;;1.03;;
15931;SDS011;8065;49.520;11.284;2023-03-14T08:40:17;3.93;;;1.83;;
15931;SDS011;8065;49.520;11.284;2023-03-14T08:42:44;1.77;;;1.37;;
15931;SDS011;8065;49.520;11.284;2023-03-14T08:45:14;3.43;;;2.63;;
15931;SDS011;8065;49.520;11.284;2023-03-14T08:47:42;0.70;;;0.70;;
15931;SDS011;8065;49.520;11.284;2023-03-14T08:50:09;0.70;;;0.50;;
15931;SDS011;8065;49.520;11.284;2023-03-14T08:52:36;1.33;;;0.80;;
15931;SDS011;8065;49.520;11.284;2023-03-14T08:55:05;5.07;;;3.13;;
15931;SDS011;8065;49.520;11.284;2023-03-14T08:57:33;1.20;;;1.00;;
15931;SDS011;8065;49.520;11.284;2023-03-14T08:59:59;1.60;;;1.50;;
15931;SDS011;8065;49.520;11.284;2023-03-14T09:02:27;1.50;;;0.87;;
15931;SDS011;8065;49.520;11.284;2023-03-14T09:04:54;1.43;;;1.30;;
15931;SDS011;8065;49.520;11.284;2023-03-14T09:07:20;2.40;;;0.83;;
15931;SDS011;8065;49.520;11.284;2023-03-14T09:09:47;1.13;;;0.63;;
15931;SDS011;8065;49.520;11.284;2023-03-14T09:12:14;0.77;;;0.50;;
15931;SDS011;8065;49.520;11.284;2023-03-14T09:14:40;0.63;;;0.60;;
15931;SDS011;8065;49.520;11.284;2023-03-14T09:17:07;0.53;;;0.50;;
15931;SDS011;8065;49.520;11.284;2023-03-14T09:19:35;1.60;;;0.80;;
15931;SDS011;8065;49.520;11.284;2023-03-14T09:22:02;0.97;;;0.50;;
15931;SDS011;8065;49.520;11.284;2023-03-14T09:24:28;1.97;;;0.90;;
15931;SDS011;8065;49.520;11.284;2023-03-14T09:26:55;2.10;;;0.63;;
15931;SDS011;8065;49.520;11.284;2023-03-14T09:29:22;0.90;;;0.60;;
15931;SDS011;8065;49.520;11.284;2023-03-14T09:31:49;5.13;;;2.97;;
15931;SDS011;8065;49.520;11.284;2023-03-14T09:34:15;3.87;;;1.30;;
15931;SDS011;8065;49.520;11.284;2023-03-14T09:36:43;1.13;;;0.60;;
15931;SDS011;8065;49.520;11.284;2023-03-14T09:39:10;0.70;;;0.70;;
15931;SDS011;8065;49.520;11.284;2023-03-14T09:41:37;0.93;;;0.40;;
15931;SDS011;8065;49.520;11.284;2023-03-14T09:44:08;1.37;;;0.90;;
15931;SDS011;8065;49.520;11.284;2023-03-14T09:46:39;1.40;;;0.60;;
15931;SDS011;8065;49.520;11.284;2023-03-14T09:49:10;1.30;;;0.50;;
15931;SDS011;8065;49.520;11.284;2023-03-14T09:51:41;1.07;;;0.70;;
15931;SDS011;8065;49.520;11.284;2023-03-14T09:54:10;0.97;;;0.60;;
15931;SDS011;8065;49.520;11.284;2023-03-14T09:56:51;2.13;;;0.77;;
15931;SDS011;8065;49.520;11.284;2023-03-14T09:59:17;2.00;;;0.60;;
15931;SDS011;8065;49.520;11.284;2023-03-14T10:01:44;0.93;;;0.50;;
15931;SDS011;8065;49.520;11.284;2023-03-14T10:04:12;1.00;;;0.57;;
15931;SDS011;8065;49.520;11.284;2023-03-14T10:06:45;1.03;;;0.60;;
15931;SDS011;8065;49.520;11.284;2023-03-14T10:09:15;0.83;;;0.50;;
15931;SDS011;8065;49.520;11.284;2023-03-14T10:11:49;0.40;;;0.40;;
15931;SDS011;8065;49.520;11.284;2023-03-14T10:14:31;1.43;;;0.60;;
15931;SDS011;8065;49.520;11.284;2023-03-14T10:17:05;1.37;;;0.67;;
15931;SDS011;8065;49.520;11.284;2023-03-14T10:19:34;1.07;;;0.60;;
15931;SDS011;8065;49.520;11.284;2023-03-14T10:22:02;0.50;;;0.50;;
15931;SDS011;8065;49.520;11.284;2023-03-14T10:24:32;1.33;;;0.40;;
15931;SDS011;8065;49.520;11.284;2023-03-14T10:27:00;1.10;;;0.50;;
15931;SDS011;8065;49.520;11.284;2023-03-14T10:29:29;1.53;;;0.60;;
15931;SDS011;8065;49.520;11.284;2023-03-14T10:31:58;1.80;;;0.60;;
15931;SDS011;8065;49.520;11.284;2023-03-14T10:34:27;3.40;;;0.50;;
15931;SDS011;8065;49.520;11.284;2023-03-14T10:36:56;1.63;;;0.70;;
15931;SDS011;8065;49.520;11.284;2023-03-14T10:39:26;1.07;;;0.70;;
15931;SDS011;8065;49.520;11.284;2023-03-14T10:42:03;1.40;;;0.60;;
15931;SDS011;8065;49.520;11.284;2023-03-14T10:44:33;0.47;;;0.47;;
15931;SDS011;8065;49.520;11.284;2023-03-14T10:47:01;0.50;;;0.40;;
15931;SDS011;8065;49.520;11.284;2023-03-14T10:49:30;1.40;;;0.40;;
15931;SDS011;8065;49.520;11.284;2023-03-14T10:52:00;1.70;;;0.50;;
15931;SDS011;8065;49.520;11.284;2023-03-14T10:54:29;0.60;;;0.50;;
15931;SDS011;8065;49.520;11.284;2023-03-14T10:56:57;1.03;;;0.50;;
15931;SDS011;8065;49.520;11.284;2023-03-14T10:59:25;1.20;;;0.60;;
15931;SDS011;8065;49.520;11.284;2023-03-14T11:01:55;0.50;;;0.50;;
15931;SDS011;8065;49.520;11.284;2023-03-14T11:04:32;0.80;;;0.70;;
15931;SDS011;8065;49.520;11.284;2023-03-14T11:07:14;0.70;;;0.60;;
15931;SDS011;8065;49.520;11.284;2023-03-14T11:09:45;0.40;;;0.40;;
15931;SDS011;8065;49.520;11.284;2023-03-14T11:12:23;1.43;;;0.50;;
15931;SDS011;8065;49.520;11.284;2023-03-14T11:15:05;0.93;;;0.50;;
15931;SDS011;8065;49.520;11.284;2023-03-14T11:17:41;0.73;;;0.40;;
15931;SDS011;8065;49.520;11.284;2023-03-14T11:20:25;1.47;;;0.50;;
15931;SDS011;8065;49.520;11.284;2023-03-14T11:23:02;2.10;;;0.43;;
15931;SDS011;8065;49.520;11.284;2023-03-14T11:25:36;0.90;;;0.50;;
15931;SDS011;8065;49.520;11.284;2023-03-14T11:28:09;1.80;;;0.43;;
15931;SDS011;8065;49.520;11.284;2023-03-14T11:30:46;0.60;;;0.60;;
15931;SDS011;8065;49.520;11.284;2023-03-14T11:33:18;1.53;;;0.50;;
15931;SDS011;8065;49.520;11.284;2023-03-14T11:35:52;1.67;;;0.50;;
15931;SDS011;8065;49.520;11.284;2023-03-14T11:38:27;1.03;;;0.40;;
15931;SDS011;8065;49.520;11.284;2023-03-14T11:40:57;2.33;;;0.80;;
15931;SDS011;8065;49.520;11.284;2023-03-14T11:43:26;0.63;;;0.40;;
15931;SDS011;8065;49.520;11.284;2023-03-14T11:45:58;1.10;;;0.40;;
15931;SDS011;8065;49.520;11.284;2023-03-14T11:48:33;1.30;;;0.57;;
15931;SDS011;8065;49.520;11.284;2023-03-14T11:51:08;0.87;;;0.50;;
15931;SDS011;8065;49.520;11.284;2023-03-14T11:53:43;2.00;;;0.50;;
15931;SDS011;8065;49.520;11.284;2023-03-14T11:56:17;0.63;;;0.60;;
15931;SDS011;8065;49.520;11.284;2023-03-14T11:58:51;0.83;;;0.60;;
15931;SDS011;8065;49.520;11.284;2023-03-14T12:01:23;1.33;;;0.57;;
15931;SDS011;8065;49.520;11.284;2023-03-14T12:04:02;2.57;;;0.83;;
15931;SDS011;8065;49.520;11.284;2023-03-14T12:06:37;0.60;;;0.60;;
15931;SDS011;8065;49.520;11.284;2023-03-14T12:09:12;1.90;;;0.43;;
15931;SDS011;8065;49.520;11.284;2023-03-14T12:11:41;0.60;;;0.60;;
15931;SDS011;8065;49.520;11.284;2023-03-14T12:14:17;2.90;;;0.63;;
15931;SDS011;8065;49.520;11.284;2023-03-14T12:16:48;0.47;;;0.40;;
15931;SDS011;8065;49.520;11.284;2023-03-14T12:19:26;0.70;;;0.60;;
15931;SDS011;8065;49.520;11.284;2023-03-14T12:21:56;1.50;;;0.80;;
15931;SDS011;8065;49.520;11.284;2023-03-14T12:24:27;0.97;;;0.50;;
15931;SDS011;8065;49.520;11.284;2023-03-14T12:26:55;2.43;;;0.90;;
15931;SDS011;8065;49.520;11.284;2023-03-14T12:29:24;0.93;;;0.43;;
15931;SDS011;8065;49.520;11.284;2023-03-14T12:34:46;0.37;;;0.37;;
15931;SDS011;8065;49.520;11.284;2023-03-14T12:40:15;1.00;;;0.63;;
15931;SDS011;8065;49.520;11.284;2023-03-14T12:42:54;1.20;;;0.40;;
15931;SDS011;8065;49.520;11.284;2023-03-14T12:45:25;0.50;;;0.50;;
15931;SDS011;8065;49.520;11.284;2023-03-14T12:47:54;0.60;;;0.37;;
15931;SDS011;8065;49.520;11.284;2023-03-14T12:50:33;0.30;;;0.20;;
15931;SDS011;8065;49.520;11.284;2023-03-14T12:53:16;0.60;;;0.43;;
15931;SDS011;8065;49.520;11.284;2023-03-14T12:55:57;0.53;;;0.10;;
15931;SDS011;8065;49.520;11.284;2023-03-14T12:58:32;0.57;;;0.40;;
15931;SDS011;8065;49.520;11.284;2023-03-14T13:01:04;0.10;;;0.10;;
15931;SDS011;8065;49.520;11.284;2023-03-14T13:03:37;0.20;;;0.20;;
15931;SDS011;8065;49.520;11.284;2023-03-14T13:06:11;0.87;;;0.20;;
15931;SDS011;8065;49.520;11.284;2023-03-14T13:08:39;0.20;;;0.20;;
15931;SDS011;8065;49.520;11.284;2023-03-14T13:11:08;0.20;;;0.20;;
15931;SDS011;8065;49.520;11.284;2023-03-14T13:13:41;1.80;;;0.20;;
15931;SDS011;8065;49.520;11.284;2023-03-14T13:16:12;0.40;;;0.20;;
15931;SDS011;8065;49.520;11.284;2023-03-14T13:18:43;1.43;;;0.20;;
15931;SDS011;8065;49.520;11.284;2023-03-14T13:21:12;0.23;;;0.20;;
15931;SDS011;8065;49.520;11.284;2023-03-14T13:23:53;0.57;;;0.23;;
15931;SDS011;8065;49.520;11.284;2023-03-14T13:26:23;0.13;;;0.13;;
15931;SDS011;8065;49.520;11.284;2023-03-14T13:28:53;0.97;;;0.17;;
15931;SDS011;8065;49.520;11.284;2023-03-14T13:31:21;1.23;;;0.17;;
15931;SDS011;8065;49.520;11.284;2023-03-14T13:33:59;0.70;;;0.10;;
15931;SDS011;8065;49.520;11.284;2023-03-14T13:36:27;0.37;;;0.20;;
15931;SDS011;8065;49.520;11.284;2023-03-14T13:38:58;0.13;;;0.13;;
15931;SDS011;8065;49.520;11.284;2023-03-14T13:41:26;0.53;;;0.20;;
15931;SDS011;8065;49.520;11.284;2023-03-14T13:43:56;1.87;;;0.30;;
15931;SDS011;8065;49.520;11.284;2023-03-14T13:46:28;0.20;;;0.20;;
15931;SDS011;8065;49.520;11.284;2023-03-14T13:48:56;0.10;;;0.10;;
15931;SDS011;8065;49.520;11.284;2023-03-14T13:51:25;0.27;;;0.27;;
15931;SDS011;8065;49.520;11.284;2023-03-14T13:53:57;0.10;;;0.10;;
15931;SDS011;8065;49.520;11.284;2023-03-14T13:56:25;0.83;;;0.20;;
15931;SDS011;8065;49.520;11.284;2023-03-14T13:58:53;0.20;;;0.20;;
15931;SDS011;8065;49.520;11.284;2023-03-14T14:01:21;0.33;;;0.27;;
15931;SDS011;8065;49.520;11.284;2023-03-14T14:03:50;0.40;;;0.27;;
15931;SDS011;8065;49.520;11.284;2023-03-14T14:06:29;0.73;;;0.20;;
15931;SDS011;8065;49.520;11.284;2023-03-14T14:08:58;0.50;;;0.27;;
15931;SDS011;8065;49.520;11.284;2023-03-14T14:11:38;0.17;;;0.17;;
15931;SDS011;8065;49.520;11.284;2023-03-14T14:14:10;0.40;;;0.30;;
15931;SDS011;8065;49.520;11.284;2023-03-14T14:16:39;0.30;;;0.30;;
15931;SDS011;8065;49.520;11.284;2023-03-14T14:19:08;0.40;;;0.20;;
15931;SDS011;8065;49.520;11.284;2023-03-14T14:21:36;0.23;;;0.23;;
15931;SDS011;8065;49.520;11.284;2023-03-14T14:24:03;0.40;;;0.37;;
15931;SDS011;8065;49.520;11.284;2023-03-14T14:26:31;0.60;;;0.40;;
15931;SDS011;8065;49.520;11.284;2023-03-14T14:28:58;0.40;;;0.40;;
15931;SDS011;8065;49.520;11.284;2023-03-14T14:31:26;0.20;;;0.20;;
15931;SDS011;8065;49.520;11.284;2023-03-14T14:33:53;0.30;;;0.30;;
15931;SDS011;8065;49.520;11.284;2023-03-14T14:36:22;1.47;;;0.60;;
15931;SDS011;8065;49.520;11.284;2023-03-14T14:38:53;1.03;;;0.40;;
15931;SDS011;8065;49.520;11.284;2023-03-14T14:41:26;0.40;;;0.40;;
15931;SDS011;8065;49.520;11.284;2023-03-14T14:43:53;0.47;;;0.47;;
15931;SDS011;8065;49.520;11.284;2023-03-14T14:46:21;0.87;;;0.50;;
15931;SDS011;8065;49.520;11.284;2023-03-14T14:48:47;0.30;;;0.30;;
15931;SDS011;8065;49.520;11.284;2023-03-14T14:51:26;0.87;;;0.40;;
15931;SDS011;8065;49.520;11.284;2023-03-14T14:54:09;0.33;;;0.33;;
15931;SDS011;8065;49.520;11.284;2023-03-14T14:56:38;0.50;;;0.40;;
15931;SDS011;8065;49.520;11.284;2023-03-14T14:59:18;0.67;;;0.30;;
15931;SDS011;8065;49.520;11.284;2023-03-14T15:01:48;0.50;;;0.40;;
15931;SDS011;8065;49.520;11.284;2023-03-14T15:04:16;0.30;;;0.20;;